Time;durP1;ratioP1;P1;durP2;ratioP2;P2;SDS_P1;SDS_P2;PMS_P1;PMS_P2;Temp;Humidity;BMP_temperature;BMP_pressure;BME280_temperature;BME280_humidity;BME280_pressure;Samples;Min_cycle;Max_cycle;Signal;HPM_P1;HPM_P2
2023/02/23 00:00:27;;;;;;;33.78;18.73;;;;;;;;;;6183493;23;20431;-92
2023/02/23 00:02:57;;;;;;;28.88;16.08;;;;;;;;;;6183600;23;20005;-93
2023/02/23 00:05:25;;;;;;;33.30;18.00;;;;;;;;;;6183037;23;20435;-92
2023/02/23 00:07:53;;;;;;;36.08;17.55;;;;;;;;;;6183416;23;20013;-92
2023/02/23 00:10:20;;;;;;;32.20;17.13;;;;;;;;;;6183353;23;20016;-91
2023/02/23 00:12:51;;;;;;;30.55;17.70;;;;;;;;;;6183385;23;20457;-92
2023/02/23 00:15:18;;;;;;;32.45;16.95;;;;;;;;;;6183832;23;20015;-92
2023/02/23 00:17:46;;;;;;;27.60;15.65;;;;;;;;;;6183492;23;20458;-91
2023/02/23 00:20:15;;;;;;;30.10;15.98;;;;;;;;;;6183420;23;20096;-91
2023/02/23 00:22:43;;;;;;;27.38;15.30;;;;;;;;;;6183174;23;20087;-91
2023/02/23 00:25:10;;;;;;;28.00;16.80;;;;;;;;;;6183550;23;20092;-92
2023/02/23 00:27:43;;;;;;;29.77;16.08;;;;;;;;;;6183485;23;20005;-92
2023/02/23 00:30:11;;;;;;;26.73;15.40;;;;;;;;;;6183222;23;20422;-92
2023/02/23 00:32:38;;;;;;;32.40;15.75;;;;;;;;;;6183207;23;20099;-92
2023/02/23 00:35:10;;;;;;;26.95;15.07;;;;;;;;;;6183184;23;20092;-92
2023/02/23 00:37:37;;;;;;;27.15;15.73;;;;;;;;;;6183097;23;20388;-91
2023/02/23 00:40:12;;;;;;;28.27;15.77;;;;;;;;;;6183299;23;20378;-92
2023/02/23 00:42:39;;;;;;;24.83;14.23;;;;;;;;;;6183559;23;20001;-92
2023/02/23 00:45:09;;;;;;;28.02;16.25;;;;;;;;;;6211315;23;20017;-92
2023/02/23 00:47:36;;;;;;;30.23;14.40;;;;;;;;;;6187508;23;20005;-92
2023/02/23 00:50:04;;;;;;;26.02;14.95;;;;;;;;;;6187390;23;20032;-93
2023/02/23 00:52:31;;;;;;;24.77;15.10;;;;;;;;;;6187739;23;20007;-91
2023/02/23 00:54:58;;;;;;;24.63;14.25;;;;;;;;;;6188008;23;20469;-92
2023/02/23 00:57:25;;;;;;;24.70;13.80;;;;;;;;;;6187905;23;20035;-91
2023/02/23 00:59:52;;;;;;;27.35;15.65;;;;;;;;;;6187867;23;20009;-91
2023/02/23 01:02:19;;;;;;;30.33;16.27;;;;;;;;;;6204619;23;19993;-91
2023/02/23 01:04:47;;;;;;;26.27;15.23;;;;;;;;;;6203733;23;20004;-91
2023/02/23 01:07:14;;;;;;;25.42;14.15;;;;;;;;;;6189342;23;20032;-91
2023/02/23 01:09:41;;;;;;;23.40;13.95;;;;;;;;;;6187718;23;20035;-92
2023/02/23 01:12:08;;;;;;;23.77;13.90;;;;;;;;;;6188304;23;20004;-92
2023/02/23 01:20:57;;;;;;;20.15;12.68;;;;;;;;;;6214256;23;20014;-92
2023/02/23 01:23:24;;;;;;;26.42;13.48;;;;;;;;;;6187897;23;20087;-93
2023/02/23 01:25:51;;;;;;;19.25;11.88;;;;;;;;;;6187678;23;20035;-92
2023/02/23 01:28:18;;;;;;;20.77;12.23;;;;;;;;;;6186815;23;20017;-92
2023/02/23 01:30:44;;;;;;;19.27;11.43;;;;;;;;;;6188083;23;20322;-92
2023/02/23 01:33:12;;;;;;;24.95;12.73;;;;;;;;;;6187774;23;20005;-92
2023/02/23 01:35:40;;;;;;;19.95;11.80;;;;;;;;;;6187838;23;20004;-93
2023/02/23 01:38:07;;;;;;;22.92;11.70;;;;;;;;;;6188103;23;20008;-92
2023/02/23 01:40:36;;;;;;;22.17;11.38;;;;;;;;;;6187826;23;20330;-92
2023/02/23 01:43:16;;;;;;;19.90;10.55;;;;;;;;;;6184704;23;20015;-92
2023/02/23 01:45:44;;;;;;;19.80;11.90;;;;;;;;;;6158026;23;20009;-91
2023/02/23 01:48:16;;;;;;;18.98;11.20;;;;;;;;;;6158203;23;20017;-93
2023/02/23 01:50:46;;;;;;;20.00;10.55;;;;;;;;;;6157627;23;20124;-92
2023/02/23 01:53:14;;;;;;;21.20;11.45;;;;;;;;;;6158112;23;20128;-92
2023/02/23 01:55:41;;;;;;;17.27;10.18;;;;;;;;;;6157726;23;20008;-92
2023/02/23 01:58:14;;;;;;;17.55;10.65;;;;;;;;;;6157539;23;20128;-92
2023/02/23 02:00:43;;;;;;;17.38;9.95;;;;;;;;;;6158016;23;20411;-91
2023/02/23 02:03:13;;;;;;;19.55;10.93;;;;;;;;;;6157514;23;20085;-90
2023/02/23 02:05:40;;;;;;;14.93;9.88;;;;;;;;;;6179149;23;20005;-91
2023/02/23 02:08:09;;;;;;;16.85;9.70;;;;;;;;;;6157933;23;20430;-92
2023/02/23 02:10:39;;;;;;;17.48;9.68;;;;;;;;;;6157183;23;20438;-92
2023/02/23 02:13:08;;;;;;;16.88;10.55;;;;;;;;;;6157969;23;20002;-92
2023/02/23 02:15:40;;;;;;;17.65;9.85;;;;;;;;;;6157117;23;20036;-92
2023/02/23 02:18:08;;;;;;;18.75;9.95;;;;;;;;;;6157934;23;20013;-92
2023/02/23 02:20:51;;;;;;;18.55;10.45;;;;;;;;;;6157009;23;20019;-92
2023/02/23 02:23:37;;;;;;;19.10;9.90;;;;;;;;;;6157452;23;20013;-92
2023/02/23 02:26:16;;;;;;;19.75;9.95;;;;;;;;;;6157775;23;20012;-92
2023/02/23 02:28:42;;;;;;;17.63;10.70;;;;;;;;;;6157157;23;20059;-92
2023/02/23 02:31:22;;;;;;;18.40;9.77;;;;;;;;;;6157818;23;20005;-91
2023/02/23 02:34:06;;;;;;;15.98;9.90;;;;;;;;;;6157077;23;20067;-91
2023/02/23 02:36:39;;;;;;;16.83;9.68;;;;;;;;;;6183669;23;20052;-92
2023/02/23 02:39:33;;;;;;;16.25;9.65;;;;;;;;;;6157861;23;20085;-92
2023/02/23 02:42:03;;;;;;;16.58;10.00;;;;;;;;;;6156915;23;20012;-93
2023/02/23 02:44:37;;;;;;;21.10;11.02;;;;;;;;;;6172689;23;20017;-92
2023/02/23 02:47:08;;;;;;;21.20;11.10;;;;;;;;;;6181951;23;20085;-92
2023/02/23 02:49:54;;;;;;;20.38;11.15;;;;;;;;;;6182097;23;20019;-92
2023/02/23 02:52:25;;;;;;;18.02;10.05;;;;;;;;;;6181597;23;20009;-92
2023/02/23 02:54:56;;;;;;;20.63;11.20;;;;;;;;;;6182053;23;20012;-92
2023/02/23 02:57:24;;;;;;;19.85;11.20;;;;;;;;;;6182520;23;20004;-91
2023/02/23 04:19:36;;;;;;;16.88;9.50;;;;;;;;;;6184087;23;20053;-91
2023/02/23 04:22:03;;;;;;;15.38;10.25;;;;;;;;;;6158355;23;20005;-91
2023/02/23 04:24:30;;;;;;;20.95;10.27;;;;;;;;;;6158448;23;20005;-92
2023/02/23 04:26:57;;;;;;;17.73;9.55;;;;;;;;;;6158953;23;20005;-91
2023/02/23 04:29:24;;;;;;;18.10;10.23;;;;;;;;;;6160020;23;20080;-92
2023/02/23 04:31:52;;;;;;;15.77;9.70;;;;;;;;;;6158357;23;20458;-91
2023/02/23 04:34:19;;;;;;;17.05;9.50;;;;;;;;;;6158875;23;20005;-90
2023/02/23 04:36:48;;;;;;;20.08;9.98;;;;;;;;;;6158776;23;20016;-93
2023/02/23 04:39:15;;;;;;;15.77;9.48;;;;;;;;;;6158183;23;20091;-91
2023/02/23 04:41:42;;;;;;;16.75;10.10;;;;;;;;;;6158135;23;20059;-91
2023/02/23 04:44:09;;;;;;;18.98;9.65;;;;;;;;;;6168835;23;20053;-93
2023/02/23 04:46:36;;;;;;;17.50;8.95;;;;;;;;;;6158392;23;20001;-90
2023/02/23 04:49:03;;;;;;;19.17;9.88;;;;;;;;;;6158032;23;20088;-91
2023/02/23 04:51:32;;;;;;;19.42;9.85;;;;;;;;;;6157871;23;20383;-92
2023/02/23 04:53:59;;;;;;;16.55;9.73;;;;;;;;;;6184068;23;20072;-92
2023/02/23 04:56:27;;;;;;;16.60;9.40;;;;;;;;;;6158578;23;20005;-91
2023/02/23 04:58:53;;;;;;;17.33;9.57;;;;;;;;;;6184119;23;20419;-91
2023/02/23 05:01:21;;;;;;;17.83;9.93;;;;;;;;;;6157994;23;20005;-92
2023/02/23 05:03:48;;;;;;;18.88;9.35;;;;;;;;;;6157927;23;20013;-91
2023/02/23 05:06:16;;;;;;;17.23;9.63;;;;;;;;;;6158356;23;20009;-91
2023/02/23 05:08:42;;;;;;;20.98;10.30;;;;;;;;;;6158004;23;20012;-91
2023/02/23 05:11:09;;;;;;;19.30;9.10;;;;;;;;;;6182613;23;20497;-91
2023/02/23 05:13:36;;;;;;;22.58;10.20;;;;;;;;;;6158296;23;20009;-92
2023/02/23 05:16:03;;;;;;;16.55;9.50;;;;;;;;;;6182872;23;20009;-92
2023/02/23 05:18:30;;;;;;;23.27;10.43;;;;;;;;;;6157720;23;20013;-93
2023/02/23 05:21:05;;;;;;;19.27;9.82;;;;;;;;;;6182626;23;20390;-95
2023/02/23 05:23:33;;;;;;;17.42;9.30;;;;;;;;;;6157928;23;20335;-92
2023/02/23 05:26:03;;;;;;;22.02;10.23;;;;;;;;;;6157633;23;20019;-91
2023/02/23 05:28:30;;;;;;;19.77;9.93;;;;;;;;;;6181138;23;20045;-91
2023/02/23 05:30:57;;;;;;;21.10;9.43;;;;;;;;;;6157766;23;20043;-92
2023/02/23 05:33:24;;;;;;;20.80;10.27;;;;;;;;;;6158154;23;20005;-91
2023/02/23 05:35:51;;;;;;;18.13;9.95;;;;;;;;;;6202825;23;20080;-92
2023/02/23 05:38:20;;;;;;;20.75;9.70;;;;;;;;;;6165193;23;20029;-94
2023/02/23 05:40:47;;;;;;;20.05;9.57;;;;;;;;;;6157735;23;20005;-91
2023/02/23 05:43:14;;;;;;;22.20;9.73;;;;;;;;;;6158175;23;20039;-90
2023/02/23 05:45:43;;;;;;;19.40;9.77;;;;;;;;;;6158197;23;20005;-90
2023/02/23 05:48:11;;;;;;;26.00;16.80;;;;;;;;;;6157620;23;20013;-91
2023/02/23 05:50:39;;;;;;;23.50;14.38;;;;;;;;;;6158026;23;20057;-91
2023/02/23 05:53:06;;;;;;;22.77;10.90;;;;;;;;;;6157297;23;20001;-91
2023/02/23 05:55:33;;;;;;;18.88;9.88;;;;;;;;;;6157498;23;20044;-91
2023/02/23 05:58:00;;;;;;;20.60;9.25;;;;;;;;;;6158194;23;20019;-91
2023/02/23 06:00:27;;;;;;;18.13;9.95;;;;;;;;;;6157379;23;20031;-91
2023/02/23 06:02:55;;;;;;;17.98;9.85;;;;;;;;;;6157879;23;20005;-91
2023/02/23 06:05:22;;;;;;;19.15;8.45;;;;;;;;;;6157527;23;20009;-90
2023/02/23 06:07:49;;;;;;;18.63;10.50;;;;;;;;;;6157587;23;20005;-90
2023/02/23 06:10:15;;;;;;;17.70;8.75;;;;;;;;;;6157399;23;20419;-90
2023/02/23 06:12:42;;;;;;;15.23;8.65;;;;;;;;;;6157472;23;20005;-91
2023/02/23 06:15:09;;;;;;;17.60;9.02;;;;;;;;;;6157251;23;20009;-90
2023/02/23 06:17:35;;;;;;;23.40;12.15;;;;;;;;;;6157625;23;20025;-90
2023/02/23 06:20:03;;;;;;;16.55;8.65;;;;;;;;;;6157563;23;20009;-91
2023/02/23 06:22:30;;;;;;;19.25;8.50;;;;;;;;;;6157512;23;20005;-91
2023/02/23 06:24:57;;;;;;;17.55;9.07;;;;;;;;;;6146631;23;20005;-90
2023/02/23 06:27:25;;;;;;;19.05;8.95;;;;;;;;;;6157692;23;20400;-91
2023/02/23 06:35:41;;;;;;;18.70;7.72;;;;;;;;;;6184336;23;20481;-91
2023/02/23 06:38:09;;;;;;;20.40;8.48;;;;;;;;;;6157625;23;20025;-92
2023/02/23 06:40:37;;;;;;;23.65;10.18;;;;;;;;;;6157278;23;20004;-91
2023/02/23 06:43:04;;;;;;;25.75;10.55;;;;;;;;;;6157706;23;20005;-91
2023/02/23 06:45:31;;;;;;;22.42;9.90;;;;;;;;;;6157410;23;20100;-93
2023/02/23 06:48:01;;;;;;;21.02;9.38;;;;;;;;;;6159746;23;20423;-93
2023/02/23 06:50:28;;;;;;;22.42;9.27;;;;;;;;;;6159738;23;20033;-92
2023/02/23 06:52:56;;;;;;;19.23;8.13;;;;;;;;;;6162282;23;20028;-95
2023/02/23 06:55:23;;;;;;;17.63;8.25;;;;;;;;;;6159302;23;20009;-93
2023/02/23 06:57:50;;;;;;;24.58;9.32;;;;;;;;;;6159302;23;20331;-94
2023/02/23 07:00:18;;;;;;;19.83;8.23;;;;;;;;;;6159283;23;20009;-92
2023/02/23 07:02:45;;;;;;;19.17;8.10;;;;;;;;;;6159386;23;20036;-94
2023/02/23 07:05:13;;;;;;;16.85;7.72;;;;;;;;;;6159716;23;20013;-92
2023/02/23 07:07:41;;;;;;;18.65;8.23;;;;;;;;;;6159038;23;20012;-92
2023/02/23 07:10:07;;;;;;;19.08;8.10;;;;;;;;;;6159529;23;20015;-91
2023/02/23 07:12:34;;;;;;;18.67;8.27;;;;;;;;;;6160066;23;20482;-93
2023/02/23 07:15:00;;;;;;;20.73;8.27;;;;;;;;;;6158967;23;20419;-92
2023/02/23 07:17:26;;;;;;;19.17;8.25;;;;;;;;;;6159038;23;20001;-94
2023/02/23 07:19:53;;;;;;;19.35;7.70;;;;;;;;;;6158902;23;20024;-94
2023/02/23 07:22:21;;;;;;;16.83;7.45;;;;;;;;;;6159304;23;20005;-95
2023/02/23 07:24:48;;;;;;;22.08;8.48;;;;;;;;;;6158815;23;20013;-95
2023/02/23 07:27:14;;;;;;;15.60;7.95;;;;;;;;;;6159224;23;20005;-93
2023/02/23 07:29:41;;;;;;;18.33;8.23;;;;;;;;;;6159003;23;20028;-95
2023/02/23 07:32:09;;;;;;;17.10;7.47;;;;;;;;;;6168930;23;19997;-94
2023/02/23 07:34:36;;;;;;;18.98;8.18;;;;;;;;;;6180168;23;19993;-94
2023/02/23 07:37:02;;;;;;;19.15;8.32;;;;;;;;;;6163296;23;20779;-94
2023/02/23 07:39:29;;;;;;;18.58;8.50;;;;;;;;;;6161524;23;20048;-94
2023/02/23 07:41:58;;;;;;;18.30;8.52;;;;;;;;;;6160022;23;20005;-93
2023/02/23 07:44:24;;;;;;;20.65;8.30;;;;;;;;;;6175001;23;20043;-92
2023/02/23 07:46:51;;;;;;;22.77;8.77;;;;;;;;;;6186382;23;20024;-94
2023/02/23 07:49:19;;;;;;;19.55;7.63;;;;;;;;;;6185468;23;20036;-94
2023/02/23 07:51:45;;;;;;;22.00;11.60;;;;;;;;;;6157389;23;20008;-93
2023/02/23 07:54:12;;;;;;;19.15;7.97;;;;;;;;;;6161146;23;20342;-93
2023/02/23 07:56:39;;;;;;;19.55;8.32;;;;;;;;;;6185922;23;20005;-94
2023/02/23 07:59:06;;;;;;;19.25;8.30;;;;;;;;;;6185826;23;20020;-94
2023/02/23 08:01:36;;;;;;;21.65;9.10;;;;;;;;;;6185679;23;20521;-93
2023/02/23 08:04:04;;;;;;;18.00;8.10;;;;;;;;;;6184416;23;20011;-96
2023/02/23 08:06:31;;;;;;;17.90;8.57;;;;;;;;;;6186441;23;20001;-93
2023/02/23 08:09:03;;;;;;;16.10;8.27;;;;;;;;;;6186121;23;20167;-92
2023/02/23 08:11:31;;;;;;;17.85;8.63;;;;;;;;;;6161143;23;20025;-94
2023/02/23 08:13:59;;;;;;;15.55;8.35;;;;;;;;;;6186129;23;20296;-94
2023/02/23 08:16:28;;;;;;;19.92;8.55;;;;;;;;;;6187609;23;20001;-95
2023/02/23 08:18:58;;;;;;;21.05;11.63;;;;;;;;;;6185944;23;20147;-93
2023/02/23 08:21:28;;;;;;;22.80;10.45;;;;;;;;;;6185473;23;20139;-93
2023/02/23 08:23:57;;;;;;;23.30;10.77;;;;;;;;;;6185683;23;20157;-93
2023/02/23 08:26:25;;;;;;;22.13;9.63;;;;;;;;;;6185728;23;20080;-94
2023/02/23 08:28:56;;;;;;;25.95;9.82;;;;;;;;;;6186983;23;20005;-95
2023/02/23 08:31:24;;;;;;;20.75;8.25;;;;;;;;;;6185916;23;20001;-92
2023/02/23 08:33:52;;;;;;;20.08;8.70;;;;;;;;;;6191363;23;20087;-93
2023/02/23 08:36:19;;;;;;;16.25;8.07;;;;;;;;;;6187561;23;20072;-95
2023/02/23 08:38:47;;;;;;;17.63;8.13;;;;;;;;;;6187505;23;20096;-94
2023/02/23 08:41:14;;;;;;;17.20;8.23;;;;;;;;;;6187150;23;20005;-92
2023/02/23 08:44:07;;;;;;;17.00;7.97;;;;;;;;;;6188260;23;20017;-96
2023/02/23 08:46:34;;;;;;;17.70;8.17;;;;;;;;;;6148250;23;20074;-93
2023/02/23 08:49:04;;;;;;;19.67;9.02;;;;;;;;;;6185135;23;20009;-93
2023/02/23 08:51:36;;;;;;;17.88;8.45;;;;;;;;;;6185705;23;20008;-94
2023/02/23 08:54:08;;;;;;;14.82;7.85;;;;;;;;;;6187011;23;20043;-94
2023/02/23 08:56:36;;;;;;;19.97;8.67;;;;;;;;;;6188860;23;20005;-92
2023/02/23 08:59:03;;;;;;;18.20;8.05;;;;;;;;;;6184855;23;20260;-92
2023/02/23 09:01:30;;;;;;;15.27;7.95;;;;;;;;;;6185569;23;20453;-92
2023/02/23 09:03:56;;;;;;;15.32;7.75;;;;;;;;;;6185661;23;20016;-92
2023/02/23 09:06:28;;;;;;;15.80;8.38;;;;;;;;;;6197012;23;20028;-95
2023/02/23 09:15:10;;;;;;;16.52;8.13;;;;;;;;;;6221785;23;20553;-94
2023/02/23 09:17:38;;;;;;;18.25;8.45;;;;;;;;;;6193439;23;20008;-95
2023/02/23 09:20:12;;;;;;;16.63;8.40;;;;;;;;;;6195260;23;20016;-95
2023/02/23 09:22:49;;;;;;;18.20;10.10;;;;;;;;;;6190700;23;20013;-96
2023/02/23 09:25:21;;;;;;;23.42;9.25;;;;;;;;;;6189734;23;20009;-92
2023/02/23 09:27:48;;;;;;;15.73;9.05;;;;;;;;;;6189673;23;20087;-94
2023/02/23 09:30:19;;;;;;;17.45;9.65;;;;;;;;;;6205158;23;20096;-93
2023/02/23 09:32:50;;;;;;;18.05;9.05;;;;;;;;;;6203272;23;20438;-96
2023/02/23 09:35:19;;;;;;;17.83;9.38;;;;;;;;;;6191982;23;20005;-94
2023/02/23 09:37:51;;;;;;;17.20;9.40;;;;;;;;;;6189724;23;20024;-95
2023/02/23 09:40:22;;;;;;;19.25;9.55;;;;;;;;;;6189821;23;20031;-95
2023/02/23 09:42:54;;;;;;;16.60;9.60;;;;;;;;;;6189743;23;20012;-96
2023/02/23 09:45:26;;;;;;;14.95;9.18;;;;;;;;;;6189934;23;20322;-95
2023/02/23 09:47:52;;;;;;;19.55;9.52;;;;;;;;;;6189740;23;20008;-95
2023/02/23 09:50:27;;;;;;;16.88;9.57;;;;;;;;;;6190064;23;20822;-94
2023/02/23 09:52:58;;;;;;;15.65;9.38;;;;;;;;;;6189962;23;20000;-94
2023/02/23 09:55:31;;;;;;;15.93;8.77;;;;;;;;;;6190508;23;20013;-95
2023/02/23 09:58:04;;;;;;;17.42;10.27;;;;;;;;;;6189596;23;20339;-94
2023/02/23 10:00:37;;;;;;;16.45;8.73;;;;;;;;;;6189605;23;20001;-94
2023/02/23 10:03:07;;;;;;;14.88;9.73;;;;;;;;;;6190270;23;20087;-94
2023/02/23 10:05:38;;;;;;;18.40;9.27;;;;;;;;;;6189469;23;20017;-92
2023/02/23 10:11:19;;;;;;;17.02;9.35;;;;;;;;;;6143626;23;20055;-95
2023/02/23 10:13:49;;;;;;;16.77;10.02;;;;;;;;;;6187261;23;20034;-94
2023/02/23 10:16:22;;;;;;;15.63;10.25;;;;;;;;;;6209526;23;20414;-91
2023/02/23 10:18:55;;;;;;;17.00;9.95;;;;;;;;;;6187296;23;20497;-94
2023/02/23 10:21:28;;;;;;;18.13;9.32;;;;;;;;;;6190687;23;20027;-93
2023/02/23 10:23:55;;;;;;;18.10;10.15;;;;;;;;;;6192065;23;20013;-92
2023/02/23 10:26:23;;;;;;;19.50;10.65;;;;;;;;;;6191077;23;20482;-92
2023/02/23 10:28:50;;;;;;;23.00;10.00;;;;;;;;;;6191243;23;20007;-92
2023/02/23 10:31:56;;;;;;;19.33;10.05;;;;;;;;;;6192382;23;20009;-92
2023/02/23 10:34:25;;;;;;;20.10;10.52;;;;;;;;;;6119018;23;20071;-94
2023/02/23 10:36:58;;;;;;;18.48;10.65;;;;;;;;;;6191608;23;20012;-93
2023/02/23 10:39:25;;;;;;;18.10;10.40;;;;;;;;;;6192377;23;20019;-93
2023/02/23 10:41:52;;;;;;;19.27;11.20;;;;;;;;;;6193419;23;20135;-94
2023/02/23 10:44:29;;;;;;;19.75;10.25;;;;;;;;;;6192153;23;20067;-92
2023/02/23 10:47:22;;;;;;;21.33;10.50;;;;;;;;;;6191753;23;20092;-91
2023/02/23 10:49:50;;;;;;;20.10;10.20;;;;;;;;;;6185895;23;20008;-92
2023/02/23 10:52:23;;;;;;;22.02;10.93;;;;;;;;;;6192839;23;20012;-92
2023/02/23 10:54:52;;;;;;;19.17;10.48;;;;;;;;;;6192493;23;20311;-93
2023/02/23 10:57:21;;;;;;;18.02;10.00;;;;;;;;;;6192434;23;20005;-92
2023/02/23 11:00:08;;;;;;;18.23;10.57;;;;;;;;;;6192541;23;20016;-92
2023/02/23 11:02:35;;;;;;;19.67;10.68;;;;;;;;;;6192446;23;20039;-91
2023/02/23 11:05:02;;;;;;;20.77;10.02;;;;;;;;;;6193031;23;20016;-93
2023/02/23 11:07:31;;;;;;;21.08;10.45;;;;;;;;;;6192768;23;20004;-91
2023/02/23 11:09:59;;;;;;;19.15;9.93;;;;;;;;;;6192574;23;20008;-91
2023/02/23 11:12:36;;;;;;;21.85;11.00;;;;;;;;;;6193064;23;20001;-95
2023/02/23 11:15:22;;;;;;;23.42;11.60;;;;;;;;;;6193077;23;20067;-93
2023/02/23 11:17:55;;;;;;;18.08;9.93;;;;;;;;;;6192175;23;20013;-91
2023/02/23 11:20:40;;;;;;;18.80;10.65;;;;;;;;;;6191066;23;20004;-95
2023/02/23 11:23:28;;;;;;;16.88;9.50;;;;;;;;;;6190663;23;20016;-93
2023/02/23 11:25:59;;;;;;;18.95;10.07;;;;;;;;;;6192991;23;20015;-90
2023/02/23 11:28:29;;;;;;;19.42;10.85;;;;;;;;;;6197402;23;20004;-94
2023/02/23 11:30:57;;;;;;;20.77;10.50;;;;;;;;;;6212857;23;20029;-94
2023/02/23 11:33:28;;;;;;;19.38;11.20;;;;;;;;;;6194909;23;20005;-94
2023/02/23 11:35:59;;;;;;;19.80;10.80;;;;;;;;;;6192885;23;20008;-94
2023/02/23 11:38:28;;;;;;;16.90;10.40;;;;;;;;;;6191706;23;20036;-94
2023/02/23 11:40:59;;;;;;;18.85;11.00;;;;;;;;;;6191738;23;20016;-94
2023/02/23 11:43:26;;;;;;;18.88;10.55;;;;;;;;;;6191561;23;20007;-95
2023/02/23 11:45:55;;;;;;;21.17;11.52;;;;;;;;;;6191189;23;20304;-93
2023/02/23 11:48:28;;;;;;;18.17;10.55;;;;;;;;;;6191083;23;20012;-94
2023/02/23 11:59:45;;;;;;;20.17;10.98;;;;;;;;;;6191032;23;20032;-92
2023/02/23 12:02:24;;;;;;;21.27;11.88;;;;;;;;;;6161156;23;20001;-92
2023/02/23 12:05:08;;;;;;;18.65;11.35;;;;;;;;;;6161069;23;20012;-95
2023/02/23 12:07:43;;;;;;;21.65;12.27;;;;;;;;;;6162147;23;20427;-94
2023/02/23 12:10:18;;;;;;;17.70;10.27;;;;;;;;;;6161022;23;20039;-93
2023/02/23 12:12:49;;;;;;;19.85;11.95;;;;;;;;;;6160928;23;20016;-92
2023/02/23 12:15:35;;;;;;;23.60;11.10;;;;;;;;;;6161268;23;20009;-93
2023/02/23 12:18:11;;;;;;;20.80;11.48;;;;;;;;;;6160981;23;20008;-91
2023/02/23 12:20:40;;;;;;;19.27;10.80;;;;;;;;;;6161109;23;20005;-93
2023/02/23 12:23:12;;;;;;;22.05;11.80;;;;;;;;;;6160833;23;20055;-91
2023/02/23 12:25:38;;;;;;;20.52;12.07;;;;;;;;;;6160851;23;20033;-92
2023/02/23 12:28:26;;;;;;;19.60;10.45;;;;;;;;;;6160744;23;20005;-91
2023/02/23 12:31:24;;;;;;;21.90;11.05;;;;;;;;;;6160894;23;20044;-92
2023/02/23 12:33:55;;;;;;;19.42;10.68;;;;;;;;;;6082129;23;20430;-91
2023/02/23 12:36:25;;;;;;;16.40;10.10;;;;;;;;;;6161018;23;20012;-93
2023/02/23 12:39:16;;;;;;;19.77;10.82;;;;;;;;;;6161211;23;20013;-93
2023/02/23 12:41:45;;;;;;;16.08;11.07;;;;;;;;;;6160912;23;20033;-92
2023/02/23 12:44:14;;;;;;;21.48;12.52;;;;;;;;;;6160109;23;20084;-92
2023/02/23 12:46:47;;;;;;;20.73;11.15;;;;;;;;;;6160981;23;20005;-92
2023/02/23 12:49:26;;;;;;;17.85;10.55;;;;;;;;;;6161145;23;20009;-92
2023/02/23 12:52:01;;;;;;;18.48;10.85;;;;;;;;;;6162202;23;20001;-94
2023/02/23 12:54:29;;;;;;;16.75;11.02;;;;;;;;;;6159670;23;20008;-92
2023/02/23 12:57:14;;;;;;;19.15;11.05;;;;;;;;;;6159319;23;20496;-93
2023/02/23 12:59:42;;;;;;;16.80;10.88;;;;;;;;;;6179463;23;20024;-93
2023/02/23 13:02:15;;;;;;;17.98;11.45;;;;;;;;;;6185197;23;20064;-94
2023/02/23 13:04:53;;;;;;;17.02;11.10;;;;;;;;;;6185333;23;20041;-95
2023/02/23 13:07:20;;;;;;;19.90;11.27;;;;;;;;;;6185343;23;20079;-95
2023/02/23 13:10:06;;;;;;;21.58;12.18;;;;;;;;;;6184517;23;20339;-95
2023/02/23 13:12:48;;;;;;;19.77;11.50;;;;;;;;;;6184963;23;20012;-95
2023/02/23 13:15:18;;;;;;;22.90;12.48;;;;;;;;;;6185449;23;20028;-96
2023/02/23 13:17:50;;;;;;;19.85;11.60;;;;;;;;;;6186094;23;20081;-95
2023/02/23 13:20:33;;;;;;;17.70;11.40;;;;;;;;;;6187905;23;20465;-96
2023/02/23 13:23:19;;;;;;;16.77;11.75;;;;;;;;;;6189350;23;20052;-95
2023/02/23 13:25:49;;;;;;;18.60;10.82;;;;;;;;;;6188127;23;20083;-96
2023/02/23 13:28:37;;;;;;;15.80;10.95;;;;;;;;;;6185658;23;20072;-95
2023/02/23 13:31:06;;;;;;;22.10;12.00;;;;;;;;;;6180519;23;19993;-94
2023/02/23 13:33:36;;;;;;;18.42;11.30;;;;;;;;;;6189340;23;20024;-95
2023/02/23 13:36:04;;;;;;;15.93;10.73;;;;;;;;;;6186102;23;20005;-94
2023/02/23 13:38:39;;;;;;;20.42;11.80;;;;;;;;;;6185651;23;20020;-96
2023/02/23 13:41:10;;;;;;;20.00;12.00;;;;;;;;;;6185343;23;20431;-95
2023/02/23 13:43:51;;;;;;;24.20;12.45;;;;;;;;;;6185098;23;20012;-95
2023/02/23 13:46:23;;;;;;;25.73;15.60;;;;;;;;;;6187019;23;20036;-95
2023/02/23 13:49:03;;;;;;;21.20;12.45;;;;;;;;;;6185062;23;20005;-94
2023/02/23 13:51:31;;;;;;;18.55;11.65;;;;;;;;;;6185984;23;20009;-93
2023/02/23 13:53:59;;;;;;;23.52;13.15;;;;;;;;;;6185003;23;20013;-93
2023/02/23 13:56:32;;;;;;;20.17;12.60;;;;;;;;;;6184750;23;20009;-95
2023/02/23 13:59:03;;;;;;;23.73;12.27;;;;;;;;;;6174934;23;20016;-93
2023/02/23 14:01:37;;;;;;;20.50;12.88;;;;;;;;;;6214377;23;20434;-96
2023/02/23 14:04:29;;;;;;;27.48;15.02;;;;;;;;;;6218269;23;20011;-96
2023/02/23 14:07:25;;;;;;;23.33;12.35;;;;;;;;;;6177134;23;20092;-94
2023/02/23 14:13:19;;;;;;;19.92;13.10;;;;;;;;;;6106464;23;20021;-94
2023/02/23 14:15:48;;;;;;;23.73;13.75;;;;;;;;;;6074900;23;20011;-95
2023/02/23 14:18:24;;;;;;;20.58;12.15;;;;;;;;;;6170323;23;20009;-96
2023/02/23 14:20:51;;;;;;;20.08;12.25;;;;;;;;;;6215903;23;20023;-96
2023/02/23 14:23:32;;;;;;;20.60;12.23;;;;;;;;;;6215839;23;20000;-96
2023/02/23 14:26:59;;;;;;;;;;;;;;;;;;;;;
2023/02/23 14:35:46;;;;;;;;;;;;;;;;;;;;;
2023/02/23 14:38:30;;;;;;;19.33;11.35;;;;;;;;;;6216686;23;20083;-96
2023/02/23 14:40:57;;;;;;;19.08;12.15;;;;;;;;;;6215332;23;20015;-96
2023/02/23 14:49:37;;;;;;;21.30;11.98;;;;;;;;;;6214174;23;20346;-94
2023/02/23 14:52:09;;;;;;;21.58;11.68;;;;;;;;;;6159676;23;20028;-95
2023/02/23 14:54:42;;;;;;;22.85;11.68;;;;;;;;;;6162166;23;20069;-96
2023/02/23 14:57:18;;;;;;;24.02;11.93;;;;;;;;;;6161013;23;20032;-95
2023/02/23 14:59:44;;;;;;;24.13;13.10;;;;;;;;;;6159763;23;20041;-93
2023/02/23 15:02:31;;;;;;;23.48;13.38;;;;;;;;;;6160171;23;20001;-95
2023/02/23 15:05:06;;;;;;;23.75;13.57;;;;;;;;;;6162238;23;20012;-94
2023/02/23 15:07:41;;;;;;;25.60;13.77;;;;;;;;;;6168296;23;20009;-96
2023/02/23 15:10:36;;;;;;;23.90;13.18;;;;;;;;;;6168255;23;20028;-96
2023/02/23 15:13:20;;;;;;;21.38;11.63;;;;;;;;;;6194764;23;20001;-94
2023/02/23 15:15:48;;;;;;;25.38;13.02;;;;;;;;;;6162586;23;20031;-96
2023/02/23 15:18:20;;;;;;;18.45;10.75;;;;;;;;;;6161851;23;20096;-96
2023/02/23 15:20:50;;;;;;;22.73;13.18;;;;;;;;;;6166140;23;20009;-94
2023/02/23 15:23:18;;;;;;;22.50;12.88;;;;;;;;;;6166159;23;20005;-94
2023/02/23 15:25:49;;;;;;;26.30;13.98;;;;;;;;;;6163850;23;20454;-96
2023/02/23 15:28:30;;;;;;;21.25;13.02;;;;;;;;;;6165970;23;20021;-93
2023/02/23 15:30:59;;;;;;;22.25;12.93;;;;;;;;;;6183089;23;20005;-95
2023/02/23 15:33:29;;;;;;;24.67;12.38;;;;;;;;;;6165841;23;20012;-95
2023/02/23 15:35:56;;;;;;;25.10;13.30;;;;;;;;;;6162735;23;20037;-95
2023/02/23 15:38:29;;;;;;;24.75;12.23;;;;;;;;;;6163427;23;20036;-95
2023/02/23 15:41:04;;;;;;;21.52;12.40;;;;;;;;;;6187018;23;20028;-95
2023/02/23 15:43:32;;;;;;;24.65;12.52;;;;;;;;;;6161555;23;20020;-94
2023/02/23 15:46:03;;;;;;;23.02;12.32;;;;;;;;;;6161533;23;20009;-94
2023/02/23 15:48:37;;;;;;;19.33;11.88;;;;;;;;;;6162013;23;20053;-96
2023/02/23 15:51:05;;;;;;;22.08;11.82;;;;;;;;;;6209089;23;20023;-95
2023/02/23 15:53:37;;;;;;;25.38;12.07;;;;;;;;;;6193533;23;20014;-92
2023/02/23 15:56:17;;;;;;;23.60;11.65;;;;;;;;;;6197151;23;20068;-95
2023/02/23 15:58:54;;;;;;;22.27;12.13;;;;;;;;;;6197308;23;20091;-96
2023/02/23 16:01:29;;;;;;;24.13;12.68;;;;;;;;;;6192358;23;20015;-95
2023/02/23 16:04:22;;;;;;;27.17;13.20;;;;;;;;;;6191721;23;20066;-96
2023/02/23 16:07:12;;;;;;;31.83;15.40;;;;;;;;;;6185974;23;20004;-96
2023/02/23 16:09:38;;;;;;;32.60;17.15;;;;;;;;;;6190973;23;20005;-94
2023/02/23 16:12:16;;;;;;;29.45;15.45;;;;;;;;;;6191855;23;20004;-93
2023/02/23 16:14:51;;;;;;;30.02;14.45;;;;;;;;;;6190950;23;20004;-94
2023/02/23 16:17:30;;;;;;;29.38;15.35;;;;;;;;;;6191047;23;20015;-93
2023/02/23 16:20:18;;;;;;;28.30;15.35;;;;;;;;;;6190635;23;20016;-93
2023/02/23 16:22:45;;;;;;;21.13;13.15;;;;;;;;;;6191445;23;20012;-93
2023/02/23 16:25:18;;;;;;;26.20;14.75;;;;;;;;;;6189814;23;20039;-92
2023/02/23 16:27:44;;;;;;;;;;;;;;;;;;6190588;23;20008;-95
2023/02/23 16:30:22;;;;;;;26.67;13.80;;;;;;;;;;6189858;23;20474;-91
2023/02/23 16:32:48;;;;;;;25.45;14.32;;;;;;;;;;6189872;23;20005;-94
2023/02/23 16:35:17;;;;;;;26.27;14.13;;;;;;;;;;6189303;23;20112;-90
2023/02/23 16:37:50;;;;;;;28.42;14.68;;;;;;;;;;6188860;23;20135;-91
2023/02/23 16:40:17;;;;;;;32.25;17.00;;;;;;;;;;6189543;23;20017;-95
2023/02/23 16:42:45;;;;;;;32.88;16.75;;;;;;;;;;6190805;23;20008;-96
2023/02/23 16:45:15;;;;;;;36.55;16.38;;;;;;;;;;6190530;23;20434;-95
2023/02/23 16:47:48;;;;;;;34.22;18.20;;;;;;;;;;6191172;23;20028;-95
2023/02/23 16:50:23;;;;;;;32.28;16.75;;;;;;;;;;6211974;23;20016;-94
2023/02/23 16:52:53;;;;;;;32.60;17.55;;;;;;;;;;6190949;23;20062;-96